Time;durP1;ratioP1;P1;durP2;ratioP2;P2;SDS_P1;SDS_P2;PMS_P1;PMS_P2;Temp;Humidity;BMP_temperature;BMP_pressure;BME280_temperature;BME280_humidity;BME280_pressure;Samples;Min_cycle;Max_cycle;Signal;HPM_P1;HPM_P2
2021/11/03 00:01:47;;;;;;;;;39.75;33.25;;;;;13.99;75.43;100690.91;146608;616;45020;-75
2021/11/03 00:04:21;;;;;;;;;39.75;34.25;;;;;13.97;75.16;100698.66;146604;575;46016;-74
2021/11/03 00:06:54;;;;;;;;;42.75;34.25;;;;;13.92;75.99;100702.78;146608;597;46010;-74
2021/11/03 00:09:30;;;;;;;;;44.25;35.25;;;;;13.86;77.45;100698.28;146606;570;45027;-74
2021/11/03 00:12:04;;;;;;;;;44.25;34.25;;;;;13.84;76.00;100701.66;146606;593;45020;-75
2021/11/03 00:14:39;;;;;;;;;43.00;32.50;;;;;13.86;76.19;100694.75;146603;564;46016;-74
2021/11/03 00:17:13;;;;;;;;;52.00;41.00;;;;;13.87;76.68;100699.16;146606;605;45031;-74
2021/11/03 00:19:47;;;;;;;;;57.25;42.00;;;;;13.86;75.61;100708.69;146607;599;45016;-75
2021/11/03 00:22:21;;;;;;;;;52.00;40.00;;;;;13.83;77.24;100697.25;146605;667;46021;-74
2021/11/03 00:24:55;;;;;;;;;38.25;32.00;;;;;13.85;76.21;100706.91;146606;613;46020;-75
2021/11/03 00:27:29;;;;;;;;;36.00;30.00;;;;;13.85;76.26;100708.63;146607;571;46010;-74
2021/11/03 00:30:02;;;;;;;;;34.25;31.00;;;;;13.84;77.42;100706.84;146605;682;46016;-74
2021/11/03 00:32:36;;;;;;;;;34.00;30.00;;;;;13.82;76.90;100711.09;146610;646;45020;-73
2021/11/03 00:35:11;;;;;;;;;36.25;30.50;;;;;13.80;77.04;100703.25;146605;565;46016;-72
2021/11/03 00:37:45;;;;;;;;;37.25;29.25;;;;;13.78;78.45;100690.97;146605;604;46911;-73
2021/11/03 00:40:18;;;;;;;;;32.50;29.25;;;;;13.77;77.59;100690.09;146606;617;46020;-73
2021/11/03 00:42:53;;;;;;;;;33.25;28.00;;;;;13.77;76.99;100697.00;146606;597;46021;-73
2021/11/03 00:45:27;;;;;;;;;41.25;32.25;;;;;13.77;77.18;100700.53;146604;573;46016;-74
2021/11/03 00:48:01;;;;;;;;;35.00;31.25;;;;;13.79;76.67;100700.56;146607;582;46010;-76
2021/11/03 00:50:35;;;;;;;;;30.50;22.25;;;;;13.79;76.47;100704.06;146605;641;45913;-74
2021/11/03 00:53:10;;;;;;;;;37.75;31.25;;;;;13.78;77.77;100704.91;146607;591;45020;-75
2021/11/03 00:55:46;;;;;;;;;30.75;24.00;;;;;13.81;77.05;100711.94;146605;659;45913;-75
2021/11/03 00:58:20;;;;;;;;;24.50;23.00;;;;;13.80;76.59;100708.47;146606;564;45021;-75
2021/11/03 01:00:54;;;;;;;;;30.50;25.75;;;;;13.82;77.31;100713.72;146607;658;45913;-80
2021/11/03 01:03:28;;;;;;;;;29.50;25.00;;;;;12.81;77.10;100528.41;146608;605;46010;-80
2021/11/03 01:06:02;;;;;;;;;29.50;26.25;;;;;13.82;77.25;100709.38;146606;564;46013;-79
2021/11/03 01:08:36;;;;;;;;;26.75;25.00;;;;;13.83;76.71;100718.09;146608;593;45020;-79
2021/11/03 01:11:10;;;;;;;;;29.50;26.00;;;;;13.85;76.08;100734.69;146604;612;45913;-79
2021/11/03 01:13:44;;;;;;;;;23.00;21.50;;;;;13.87;76.95;100733.03;146606;672;45021;-78
2021/11/03 01:16:18;;;;;;;;;24.50;22.00;;;;;13.86;76.24;100734.75;146605;566;45913;-77
2021/11/03 01:18:53;;;;;;;;;21.50;20.50;;;;;13.84;76.92;100730.31;146605;591;46020;-77
2021/11/03 01:21:27;;;;;;;;;23.25;22.00;;;;;13.82;76.82;100732.84;146607;631;45021;-78
2021/11/03 01:24:01;;;;;;;;;19.00;17.25;;;;;13.82;76.22;100731.97;146606;566;46012;-73
2021/11/03 01:26:35;;;;;;;;;21.75;20.25;;;;;13.80;76.41;100742.34;146605;580;47020;-73
2021/11/03 01:29:10;;;;;;;;;15.50;14.00;;;;;13.78;76.17;100744.00;146606;582;47012;-75
2021/11/03 01:31:44;;;;;;;;;17.25;15.25;;;;;13.79;76.89;100743.16;146606;565;45016;-77
2021/11/03 01:34:18;;;;;;;;;18.50;16.25;;;;;13.75;77.23;100746.47;146610;600;45020;-73
2021/11/03 01:36:52;;;;;;;;;19.50;14.50;;;;;13.76;77.49;100747.38;146606;602;45017;-73
2021/11/03 01:39:25;;;;;;;;;19.75;14.75;;;;;13.76;77.30;100745.63;146606;575;46010;-73
2021/11/03 01:41:59;;;;;;;;;19.75;16.50;;;;;13.79;77.77;100737.94;146604;599;45020;-73
2021/11/03 01:44:33;;;;;;;;;12.75;11.50;;;;;13.81;76.91;100741.50;146607;571;46020;-73
2021/11/03 01:47:43;;;;;;;;;15.00;11.50;;;;;13.80;77.98;100737.12;146608;631;46012;-76
2021/11/03 01:50:36;;;;;;;;;12.25;8.50;;;;;13.80;77.20;100736.22;146607;566;46020;-75
2021/11/03 01:53:19;;;;;;;;;13.25;9.50;;;;;13.81;77.00;100727.59;146608;584;46020;-75
2021/11/03 01:56:07;;;;;;;;;14.00;9.25;;;;;13.82;76.40;100729.34;146610;651;46010;-75
2021/11/03 01:58:57;;;;;;;;;8.75;8.75;;;;;13.86;76.83;100726.94;146609;662;45914;-75
2021/11/03 02:01:32;;;;;;;;;11.00;9.00;;;;;13.87;77.35;100730.44;146615;695;45020;-75
2021/11/03 02:04:06;;;;;;;;;7.67;6.33;;;;;13.89;77.71;100741.78;146609;693;46016;-73
2021/11/03 02:06:41;;;;;;;;;8.00;7.75;;;;;13.92;77.08;100741.00;146605;569;46012;-75
2021/11/03 02:09:15;;;;;;;;;9.25;9.25;;;;;13.91;77.66;100736.66;146611;619;46020;-75
2021/11/03 02:11:49;;;;;;;;;12.75;9.50;;;;;13.96;77.18;100736.00;146616;661;45013;-73
2021/11/03 02:14:23;;;;;;;;;13.25;10.75;;;;;13.99;76.82;100738.72;146611;631;46012;-77
2021/11/03 02:16:57;;;;;;;;;11.25;11.00;;;;;14.04;76.09;100750.19;146609;636;45023;-78
2021/11/03 02:19:37;;;;;;;;;11.00;11.00;;;;;14.08;76.20;100753.78;146608;580;46016;-77
2021/11/03 02:22:40;;;;;;;;;13.00;9.75;;;;;14.12;75.08;100762.63;146611;629;46020;-73
2021/11/03 02:25:34;;;;;;;;;9.75;9.25;;;;;14.13;75.31;100762.69;146611;628;46012;-72
2021/11/03 02:28:11;;;;;;;;;20.75;17.00;;;;;14.19;76.08;100775.94;146612;648;46010;-72
2021/11/03 02:30:45;;;;;;;;;17.00;17.00;;;;;14.23;75.32;100783.03;146608;718;45036;-71
2021/11/03 02:33:29;;;;;;;;;12.50;10.50;;;;;14.24;75.59;100783.97;146609;639;45020;-71
2021/11/03 02:36:07;;;;;;;;;11.75;11.75;;;;;14.21;75.42;100776.03;146604;608;45914;-75
2021/11/03 02:38:44;;;;;;;;;10.50;9.25;;;;;14.17;76.26;100785.44;146611;565;46012;-75
2021/11/03 02:41:24;;;;;;;;;13.75;11.00;;;;;14.09;76.06;100774.72;146608;576;46013;-74
2021/11/03 02:44:15;;;;;;;;;12.75;11.75;;;;;14.07;75.99;100773.75;146609;737;45020;-74
2021/11/03 02:46:49;;;;;;;;;10.00;9.00;;;;;14.03;76.36;100776.22;146605;609;46012;-74
2021/11/03 02:49:23;;;;;;;;;11.50;10.50;;;;;14.01;75.86;100785.69;146613;600;46010;-74
2021/11/03 02:51:57;;;;;;;;;10.75;8.25;;;;;13.98;76.32;100781.22;146609;579;45043;-74
2021/11/03 02:54:31;;;;;;;;;9.00;6.25;;;;;13.98;76.07;100790.78;146614;642;46010;-73
2021/11/03 02:57:07;;;;;;;;;8.25;6.75;;;;;13.99;75.94;100800.41;146613;624;46013;-79
2021/11/03 02:59:41;;;;;;;;;8.00;7.67;;;;;13.97;75.82;100802.03;146609;579;46020;-78
2021/11/03 03:02:15;;;;;;;;;6.50;3.50;;;;;13.96;75.25;100803.78;146613;581;45913;-78
2021/11/03 03:04:56;;;;;;;;;5.25;5.25;;;;;14.01;75.17;100804.81;146614;622;46010;-80
2021/11/03 03:07:30;;;;;;;;;14.75;11.00;;;;;14.05;75.64;100806.72;146611;571;46016;-77
2021/11/03 03:10:04;;;;;;;;;9.00;8.00;;;;;14.08;75.04;100809.47;146611;609;45013;-78
2021/11/03 03:12:38;;;;;;;;;9.00;5.50;;;;;14.10;74.75;100804.28;146613;661;46914;-77
2021/11/03 03:15:13;;;;;;;;;7.75;5.75;;;;;14.10;75.26;100817.31;146615;580;46012;-77
2021/11/03 03:17:47;;;;;;;;;7.50;6.00;;;;;14.05;74.70;100819.78;146612;706;45029;-80
2021/11/03 03:20:21;;;;;;;;;6.50;5.50;;;;;14.03;75.00;100824.03;146614;670;46010;-77
2021/11/03 03:22:55;;;;;;;;;8.75;8.00;;;;;13.95;75.25;100827.16;146611;642;45027;-78
2021/11/03 03:25:30;;;;;;;;;8.00;7.50;;;;;13.90;75.97;100823.50;146607;695;46010;-78
2021/11/03 03:28:04;;;;;;;;;11.00;9.25;;;;;13.84;75.40;100830.25;146613;581;45016;-78
2021/11/03 03:30:38;;;;;;;;;21.75;16.50;;;;;13.80;75.86;100828.34;146611;739;45020;-78
2021/11/03 03:33:12;;;;;;;;;12.00;11.00;;;;;13.78;75.34;100834.31;146605;656;45913;-78
2021/11/03 03:35:46;;;;;;;;;11.50;11.50;;;;;13.76;75.57;100835.97;146609;566;45020;-75
2021/11/03 03:38:20;;;;;;;;;16.75;14.00;;;;;13.71;76.58;100830.59;146609;687;45913;-75
2021/11/03 03:40:54;;;;;;;;;15.00;14.50;;;;;13.65;75.41;100842.47;146608;597;46012;-76
2021/11/03 03:43:28;;;;;;;;;18.00;14.00;;;;;13.58;75.41;100842.22;146607;580;46012;-77
2021/11/03 03:46:02;;;;;;;;;15.50;11.00;;;;;13.57;76.23;100844.75;146610;622;45032;-78
2021/11/03 03:48:36;;;;;;;;;10.00;9.00;;;;;13.51;76.81;100841.91;146607;724;46012;-76
2021/11/03 03:51:12;;;;;;;;;9.00;7.00;;;;;13.39;77.27;100840.59;146610;648;45012;-76
2021/11/03 03:53:46;;;;;;;;;10.75;9.50;;;;;13.31;76.61;100839.38;146613;694;45913;-77
2021/11/03 03:56:22;;;;;;;;;11.25;8.25;;;;;13.26;76.10;100843.47;146614;721;45021;-74
2021/11/03 03:58:57;;;;;;;;;8.50;7.25;;;;;13.29;75.91;100847.94;146610;574;46012;-74
2021/11/03 04:01:32;;;;;;;;;8.75;7.25;;;;;13.30;76.06;100837.59;146614;565;46021;-71
2021/11/03 04:04:06;;;;;;;;;11.00;9.00;;;;;13.32;76.38;100848.06;146612;565;46012;-72
2021/11/03 04:06:41;;;;;;;;;14.25;11.00;;;;;13.29;76.03;100854.03;146613;662;45020;-77
2021/11/03 04:09:15;;;;;;;;;8.50;7.25;;;;;13.24;76.64;100852.00;146609;573;45017;-77
2021/11/03 04:11:49;;;;;;;;;5.75;4.75;;;;;13.19;76.24;100854.44;146613;572;46020;-78
2021/11/03 04:14:22;;;;;;;;;7.33;6.00;;;;;13.15;76.24;100855.13;146612;634;46020;-75
2021/11/03 04:16:57;;;;;;;;;12.75;11.00;;;;;13.11;76.65;100856.69;146607;679;46021;-73
2021/11/03 04:19:31;;;;;;;;;8.50;7.25;;;;;13.07;76.61;100852.19;146605;563;46012;-72
2021/11/03 04:22:05;;;;;;;;;7.75;6.25;;;;;13.03;76.69;100858.09;146613;586;45020;-72
2021/11/03 04:24:39;;;;;;;;;4.00;4.00;;;;;13.03;76.37;100857.22;146611;628;46013;-71
2021/11/03 04:27:14;;;;;;;;;3.75;3.25;;;;;13.04;76.47;100862.47;146613;563;46020;-73
2021/11/03 04:29:48;;;;;;;;;2.00;2.00;;;;;13.04;76.74;100862.47;146612;596;45016;-78
2021/11/03 04:32:22;;;;;;;;;4.50;3.50;;;;;13.08;76.10;100866.09;146614;622;46010;-75
2021/11/03 04:34:56;;;;;;;;;4.50;4.25;;;;;13.12;76.91;100868.91;146612;631;45913;-76
2021/11/03 04:37:30;;;;;;;;;5.50;5.50;;;;;13.14;76.65;100861.16;146613;597;46010;-76
2021/11/03 04:40:04;;;;;;;;;7.00;5.00;;;;;13.13;76.73;100861.97;146612;580;45913;-77
2021/11/03 04:42:48;;;;;;;;;4.25;4.25;;;;;13.12;76.82;100868.91;146607;691;46020;-77
2021/11/03 04:45:23;;;;;;;;;4.75;4.75;;;;;13.13;77.02;100869.78;146611;612;45016;-79
2021/11/03 04:47:58;;;;;;;;;6.25;5.25;;;;;13.11;77.11;100877.53;146613;731;45021;-81
2021/11/03 04:50:34;;;;;;;;;4.00;4.00;;;;;13.10;77.82;100870.53;146610;576;46016;-80
2021/11/03 04:53:08;;;;;;;;;5.00;4.67;;;;;13.11;76.97;100869.72;146614;564;46020;-81
2021/11/03 04:55:43;;;;;;;;;5.00;5.00;;;;;13.10;77.15;100875.75;146613;623;46916;-82
2021/11/03 04:58:17;;;;;;;;;5.00;4.75;;;;;13.11;77.43;100868.81;146615;647;45020;-80
2021/11/03 05:00:53;;;;;;;;;7.00;6.00;;;;;13.12;78.89;100874.13;146612;630;46012;-79
2021/11/03 05:03:27;;;;;;;;;8.75;6.50;;;;;13.14;77.54;100874.16;146611;674;46909;-75
2021/11/03 05:06:02;;;;;;;;;9.25;9.25;;;;;13.17;77.24;100880.38;146610;569;46016;-73
2021/11/03 05:08:36;;;;;;;;;14.75;11.00;;;;;13.25;77.34;100885.97;146607;671;45020;-72
2021/11/03 05:11:12;;;;;;;;;12.75;9.50;;;;;13.28;77.79;100888.72;146604;616;45916;-72
2021/11/03 05:13:48;;;;;;;;;12.75;12.00;;;;;13.34;78.52;100899.41;146615;672;46012;-72
2021/11/03 05:16:25;;;;;;;;;15.50;13.25;;;;;13.39;78.26;100897.87;146605;728;46016;-73
2021/11/03 05:19:00;;;;;;;;;15.00;14.00;;;;;13.47;78.25;100897.31;146608;577;46020;-72
2021/11/03 05:21:39;;;;;;;;;16.25;13.50;;;;;13.54;77.56;100901.94;146608;629;45915;-72
2021/11/03 05:24:13;;;;;;;;;17.00;14.50;;;;;13.65;77.17;100908.50;146607;578;46011;-71
2021/11/03 05:26:48;;;;;;;;;22.00;14.25;;;;;13.75;78.39;100909.78;146607;569;45016;-72
2021/11/03 05:29:23;;;;;;;;;18.00;14.75;;;;;13.80;79.09;100909.16;146608;590;45020;-70
2021/11/03 05:31:57;;;;;;;;;16.00;13.75;;;;;13.86;79.09;100913.69;146606;592;46012;-71
2021/11/03 05:34:35;;;;;;;;;16.00;15.00;;;;;12.92;78.89;100742.22;146606;582;46020;-72
2021/11/03 05:37:09;;;;;;;;;13.75;11.50;;;;;14.19;77.52;100918.50;146610;578;46012;-74
2021/11/03 05:39:43;;;;;;;;;13.50;12.50;;;;;14.76;76.54;100924.22;146609;619;46020;-72
2021/11/03 05:42:17;;;;;;;;;12.25;11.50;;;;;15.40;75.19;100933.50;146604;596;46016;-72
2021/11/03 05:44:51;;;;;;;;;11.75;10.25;;;;;15.90;73.58;100937.84;146612;651;45020;-70
2021/11/03 05:47:28;;;;;;;;;15.75;12.25;;;;;16.47;72.15;100942.25;146608;639;46012;-72
2021/11/03 05:50:02;;;;;;;;;32.75;28.50;;;;;17.26;71.04;100948.09;146611;582;45020;-72
2021/11/03 05:52:36;;;;;;;;;43.25;36.25;;;;;18.19;69.17;100965.38;146607;715;45915;-72
2021/11/03 05:55:11;;;;;;;;;38.25;32.75;;;;;19.12;66.57;100972.72;146608;615;46012;-73
2021/11/03 05:57:46;;;;;;;;;29.00;27.75;;;;;20.04;63.99;100989.37;146605;608;46016;-73
2021/11/03 06:00:33;;;;;;;;;31.00;26.25;;;;;20.86;61.13;100980.97;146607;607;46011;-73
2021/11/03 06:03:07;;;;;;;;;30.50;24.00;;;;;21.38;58.52;100973.75;146604;676;46016;-72
2021/11/03 06:05:41;;;;;;;;;30.25;28.25;;;;;21.69;57.98;100972.31;146608;573;46010;-70
2021/11/03 06:08:15;;;;;;;;;32.75;29.50;;;;;22.05;57.79;100962.94;146605;581;45020;-70
2021/11/03 06:10:51;;;;;;;;;34.75;30.00;;;;;22.47;57.35;100969.44;146609;586;45031;-70
2021/11/03 06:13:25;;;;;;;;;33.50;30.00;;;;;22.94;56.29;100974.16;146599;595;46016;-69
2021/11/03 06:16:00;;;;;;;;;38.50;31.75;;;;;23.26;54.34;100993.66;146608;569;45021;-69
2021/11/03 06:18:34;;;;;;;;;35.75;31.50;;;;;23.41;53.85;100994.59;146607;583;45020;-69
2021/11/03 06:21:11;;;;;;;;;48.25;38.25;;;;;23.52;53.87;100996.41;146609;573;46020;-67
2021/11/03 06:23:44;;;;;;;;;47.00;36.75;;;;;23.65;52.96;100999.06;146606;648;46012;-68
2021/11/03 06:26:20;;;;;;;;;46.00;38.75;;;;;23.65;53.30;101007.00;146607;603;46010;-67
2021/11/03 06:28:55;;;;;;;;;47.00;38.00;;;;;23.60;52.98;101014.94;146604;618;46915;-68
2021/11/03 06:31:29;;;;;;;;;49.50;38.50;;;;;23.47;51.97;101026.38;146607;592;46010;-70
2021/11/03 06:34:05;;;;;;;;;42.50;36.00;;;;;23.27;53.07;101021.91;146607;584;46012;-72
2021/11/03 06:36:40;;;;;;;;;47.75;38.50;;;;;23.15;53.46;101016.56;146609;628;46012;-70
2021/11/03 06:39:14;;;;;;;;;50.25;41.00;;;;;23.09;53.01;101015.66;146603;616;46017;-74
2021/11/03 06:41:50;;;;;;;;;43.50;36.00;;;;;22.93;53.33;101022.56;146608;634;45020;-74
2021/11/03 06:44:23;;;;;;;;;45.75;35.25;;;;;22.74;53.25;101041.00;146604;564;46012;-74
2021/11/03 06:46:57;;;;;;;;;47.00;37.75;;;;;22.49;53.82;101039.94;146609;613;45020;-75
2021/11/03 06:49:31;;;;;;;;;45.75;38.25;;;;;22.25;54.28;101030.06;146603;586;46012;-74
2021/11/03 06:52:06;;;;;;;;;43.75;34.25;;;;;21.99;55.32;101032.41;146606;566;46013;-73
2021/11/03 06:54:40;;;;;;;;;41.00;33.00;;;;;21.78;56.06;101033.09;146604;600;46019;-75
2021/11/03 06:57:14;;;;;;;;;37.25;31.25;;;;;21.55;56.21;101038.13;146608;589;46020;-81
2021/11/03 06:59:50;;;;;;;;;40.50;32.75;;;;;21.33;57.61;101025.53;146605;600;45915;-79
2021/11/03 07:02:24;;;;;;;;;30.25;27.75;;;;;21.31;58.78;101033.44;146609;578;45020;-77
2021/11/03 07:04:58;;;;;;;;;19.00;17.50;;;;;21.34;59.02;101036.09;146605;564;46012;-73
2021/11/03 07:07:32;;;;;;;;;29.00;24.75;;;;;21.41;58.44;101047.66;146609;576;45012;-79
2021/11/03 07:10:12;;;;;;;;;25.50;23.75;;;;;21.44;58.18;101055.59;146603;583;46012;-81
2021/11/03 07:12:46;;;;;;;;;31.00;28.75;;;;;21.45;58.74;101054.72;146606;677;46020;-81
2021/11/03 07:15:20;;;;;;;;;39.00;33.75;;;;;21.48;58.18;101053.87;146593;583;47915;-81
2021/11/03 07:17:58;;;;;;;;;33.50;29.75;;;;;21.51;58.63;101049.50;146605;582;46022;-81
2021/11/03 07:20:32;;;;;;;;;37.75;32.50;;;;;21.55;58.63;101055.72;146599;564;47018;-81
2021/11/03 07:23:06;;;;;;;;;33.50;28.00;;;;;21.60;58.08;101052.25;146604;584;46010;-80
2021/11/03 07:25:40;;;;;;;;;31.00;28.50;;;;;21.66;57.96;101060.25;146603;564;47915;-81
2021/11/03 07:28:15;;;;;;;;;34.50;29.50;;;;;21.72;58.16;101069.12;146604;600;46020;-80
2021/11/03 07:30:49;;;;;;;;;30.75;27.25;;;;;21.79;58.48;101061.25;146599;589;46016;-78
2021/11/03 07:33:23;;;;;;;;;36.00;31.50;;;;;21.83;57.28;101078.00;146604;645;46020;-82
2021/11/03 07:35:58;;;;;;;;;40.00;32.50;;;;;21.83;58.45;101086.81;146602;618;46012;-81
2021/11/03 07:38:32;;;;;;;;;25.75;25.75;;;;;21.89;58.15;101091.28;146606;602;46012;-81
2021/11/03 07:41:06;;;;;;;;;31.50;29.25;;;;;21.93;57.82;101090.44;146602;584;47915;-81
2021/11/03 07:43:44;;;;;;;;;32.00;29.75;;;;;22.00;57.95;101092.28;146604;598;47010;-77
2021/11/03 07:46:19;;;;;;;;;35.25;29.75;;;;;22.09;57.39;101089.75;146602;572;46016;-80
2021/11/03 07:48:53;;;;;;;;;35.25;29.50;;;;;22.16;57.22;101092.44;146606;563;45022;-78
2021/11/03 07:51:27;;;;;;;;;34.25;30.75;;;;;22.06;58.15;101076.50;146602;612;46017;-81
2021/11/03 07:54:01;;;;;;;;;26.75;24.50;;;;;22.28;58.67;101104.03;146608;628;45023;-87
2021/11/03 07:56:40;;;;;;;;;27.75;26.25;;;;;22.39;58.80;101101.50;146602;598;46016;-87
2021/11/03 07:59:16;;;;;;;;;34.50;27.75;;;;;22.55;58.74;101102.50;146608;587;46010;-91
2021/11/03 08:01:51;;;;;;;;;29.25;28.00;;;;;22.55;58.22;101079.62;146603;569;46012;-89
2021/11/03 08:04:26;;;;;;;;;27.75;26.50;;;;;22.69;58.25;101071.78;146605;664;46909;-91
2021/11/03 08:07:00;;;;;;;;;30.00;27.00;;;;;22.93;57.71;101093.97;146604;591;46915;-92
2021/11/03 08:09:35;;;;;;;;;27.75;26.00;;;;;22.94;58.12;101080.78;146608;585;46010;-91
2021/11/03 08:12:35;;;;;;;;;26.00;24.00;;;;;23.16;59.31;101094.16;146606;574;46012;-92
2021/11/03 08:15:15;;;;;;;;;29.50;26.50;;;;;23.33;58.85;101088.94;146612;579;45012;-90
2021/11/03 08:17:52;;;;;;;;;25.25;21.50;;;;;23.47;57.71;101080.19;146609;563;45016;-92
2021/11/03 08:20:39;;;;;;;;;32.50;27.25;;;;;23.58;58.03;101079.34;146608;579;46020;-91
2021/11/03 08:23:19;;;;;;;;;30.75;28.00;;;;;23.62;58.17;101073.19;146607;604;45915;-92
2021/11/03 08:25:55;;;;;;;;;30.75;28.25;;;;;23.74;58.68;101079.44;146609;558;45020;-93
2021/11/03 08:28:28;;;;;;;;;27.25;24.25;;;;;23.86;57.57;101085.63;146605;590;46013;-91
2021/11/03 08:31:03;;;;;;;;;24.00;21.25;;;;;23.91;56.95;101079.47;146607;571;45020;-89
2021/11/03 08:33:44;;;;;;;;;23.00;21.25;;;;;23.98;57.85;101083.00;146607;573;45915;-91
2021/11/03 08:39:01;;;;;;;;;21.75;20.75;;;;;22.27;56.79;100748.28;146608;577;46020;-90
2021/11/03 08:46:52;;;;;;;;;24.00;22.75;;;;;24.31;56.09;101076.00;146613;595;45012;-93
2021/11/03 08:49:26;;;;;;;;;24.00;19.50;;;;;24.30;55.71;101066.25;146607;601;47012;-90
2021/11/03 08:52:02;;;;;;;;;26.00;23.75;;;;;24.23;54.66;101077.75;146610;631;45027;-92
2021/11/03 08:54:55;;;;;;;;;25.00;22.50;;;;;22.72;56.56;100844.47;146605;630;46016;-94
2021/11/03 08:57:31;;;;;;;;;26.50;21.25;;;;;24.04;55.85;101080.38;146610;571;45020;-91
2021/11/03 09:00:10;;;;;;;;;20.25;19.25;;;;;24.01;56.03;101072.41;146607;565;46012;-91
2021/11/03 09:02:44;;;;;;;;;23.50;21.00;;;;;23.95;55.88;101073.28;146607;586;46010;-87
2021/11/03 09:05:18;;;;;;;;;18.75;17.75;;;;;23.83;55.64;101070.63;146608;644;45034;-89
2021/11/03 09:08:15;;;;;;;;;25.00;18.67;;;;;23.72;57.69;101072.38;146609;645;46010;-91
2021/11/03 09:10:55;;;;;;;;;13.33;11.33;;;;;23.70;55.89;101068.81;146609;572;45018;-90
2021/11/03 09:13:33;;;;;;;;;15.00;12.33;;;;;23.55;55.67;101029.94;146609;573;46010;-92
2021/11/03 09:16:07;;;;;;;;;15.33;13.67;;;;;23.79;55.89;101052.06;146605;607;46012;-91
2021/11/03 09:18:41;;;;;;;;;16.00;12.75;;;;;21.79;55.49;100704.94;146609;706;45020;-90
2021/11/03 09:21:15;;;;;;;;;16.67;14.00;;;;;21.92;56.11;100719.94;146604;662;46911;-92
2021/11/03 09:24:00;;;;;;;;;16.33;14.67;;;;;23.99;56.01;101050.34;146608;616;46010;-89
2021/11/03 09:26:46;;;;;;;;;15.00;12.00;;;;;23.47;55.76;100923.16;146601;612;47909;-92
2021/11/03 09:32:27;;;;;;;;;20.25;18.25;;;;;23.11;54.31;100811.09;146608;587;46012;-92
2021/11/03 09:35:02;;;;;;;;;18.67;16.33;;;;;22.56;54.23;100690.25;146611;572;45017;-90
2021/11/03 09:37:38;;;;;;;;;20.75;20.25;;;;;22.24;53.43;100617.97;146607;472;46915;-90
2021/11/03 09:40:32;;;;;;;;;21.25;19.00;;;;;24.07;54.98;100942.63;146609;578;46012;-84
2021/11/03 09:43:27;;;;;;;;;21.25;18.25;;;;;24.49;55.88;101035.38;146606;664;46016;-83
2021/11/03 09:46:06;;;;;;;;;21.50;18.50;;;;;24.44;53.52;101038.03;146609;640;46010;-80
2021/11/03 09:48:40;;;;;;;;;20.25;18.75;;;;;24.41;54.44;101038.91;146607;590;46016;-81
2021/11/03 09:51:23;;;;;;;;;19.25;17.50;;;;;24.36;54.93;101029.16;146610;578;46012;-82
2021/11/03 09:54:01;;;;;;;;;18.67;16.33;;;;;24.27;54.01;101037.09;146608;643;46012;-82
2021/11/03 09:56:46;;;;;;;;;14.00;13.67;;;;;24.08;53.19;101038.88;146610;582;46013;-80
2021/11/03 09:59:56;;;;;;;;;18.50;16.00;;;;;23.84;52.94;101037.09;146605;573;47914;-82
2021/11/03 10:03:00;;;;;;;;;17.75;17.25;;;;;23.67;55.52;101035.22;146610;581;46010;-82
2021/11/03 10:06:10;;;;;;;;;10.00;9.00;;;;;23.48;51.85;101039.59;146607;613;45916;-77
2021/11/03 10:08:47;;;;;;;;;15.33;11.67;;;;;23.43;54.61;101033.41;146616;581;46010;-81
2021/11/03 10:11:35;;;;;;;;;10.00;9.67;;;;;23.40;51.81;101037.81;146610;579;46017;-80
2021/11/03 10:14:11;;;;;;;;;7.67;7.00;;;;;23.42;54.63;101036.03;146618;571;46010;-81
2021/11/03 10:16:48;;;;;;;;;10.00;9.33;;;;;23.54;53.82;101032.56;146611;652;46016;-81
2021/11/03 10:19:37;;;;;;;;;11.33;11.00;;;;;23.71;54.50;101028.25;146615;583;46010;-81
2021/11/03 10:22:42;;;;;;;;;10.00;9.33;;;;;23.84;52.43;101023.84;146608;566;46012;-82
2021/11/03 10:25:34;;;;;;;;;10.67;8.00;;;;;23.96;54.20;101021.22;146610;590;45032;-81
2021/11/03 10:28:08;;;;;;;;;11.67;11.00;;;;;24.07;53.12;101015.91;146609;618;46016;-81
2021/11/03 10:30:55;;;;;;;;;11.00;10.33;;;;;24.17;50.87;101012.38;146613;606;46012;-79
2021/11/03 10:33:38;;;;;;;;;8.67;7.00;;;;;24.23;51.34;101011.50;146607;648;46012;-81
2021/11/03 10:36:24;;;;;;;;;13.33;12.67;;;;;24.24;53.84;101007.94;146618;584;46010;-82
2021/11/03 10:39:01;;;;;;;;;13.67;11.00;;;;;24.30;51.37;100992.06;146609;614;46012;-81
2021/11/03 10:41:38;;;;;;;;;11.33;11.00;;;;;24.29;51.40;100995.59;146613;583;46012;-83
2021/11/03 10:44:28;;;;;;;;;12.00;11.67;;;;;24.21;50.66;100990.31;146610;680;46016;-81
2021/11/03 10:47:24;;;;;;;;;13.67;11.33;;;;;24.26;53.61;100985.87;146612;608;46020;-80
2021/11/03 10:50:30;;;;;;;;;13.00;10.67;;;;;24.29;50.04;100975.28;146608;583;45016;-79
2021/11/03 10:57:30;;;;;;;;;16.00;11.00;;;;;24.41;52.32;100977.03;146607;692;46016;-81
2021/11/03 11:00:35;;;;;;;;;8.33;7.67;;;;;24.49;50.33;100977.94;146613;604;46010;-80
2021/11/03 11:03:24;;;;;;;;;7.00;6.00;;;;;24.65;52.75;100970.84;146613;596;46916;-82
2021/11/03 11:06:27;;;;;;;;;11.00;8.00;;;;;23.89;51.17;100808.44;146618;597;46010;-81
2021/11/03 11:09:36;;;;;;;;;11.67;7.33;;;;;24.01;51.88;100802.25;146611;633;46016;-81
2021/11/03 11:12:49;;;;;;;;;9.67;9.00;;;;;24.27;53.03;100806.56;146618;625;46012;-82
2021/11/03 11:16:05;;;;;;;;;7.00;7.00;;;;;24.41;51.59;100807.41;146613;569;45032;-83
2021/11/03 11:19:16;;;;;;;;;8.00;7.00;;;;;24.43;51.47;100803.03;146619;595;45012;-82
2021/11/03 11:22:16;;;;;;;;;6.33;5.33;;;;;25.47;49.77;100982.87;146616;680;46012;-81
2021/11/03 11:25:17;;;;;;;;;4.00;4.00;;;;;25.39;51.11;100970.53;146608;587;46020;-82
2021/11/03 11:28:15;;;;;;;;;10.00;7.00;;;;;25.33;50.20;100974.12;146608;597;45018;-82
2021/11/03 11:31:31;;;;;;;;;4.33;4.33;;;;;24.28;50.63;100801.28;146618;670;46010;-81
2021/11/03 11:34:27;;;;;;;;;11.33;9.00;;;;;25.32;50.42;100978.53;146613;563;47914;-80
2021/11/03 11:37:41;;;;;;;;;6.00;5.00;;;;;24.34;50.54;100792.44;146616;584;45020;-82
2021/11/03 11:40:51;;;;;;;;;9.33;8.00;;;;;25.53;46.49;100968.69;146612;597;45916;-81
2021/11/03 11:43:39;;;;;;;;;6.00;5.33;;;;;25.49;48.15;100943.06;146619;676;45020;-82
2021/11/03 11:46:25;;;;;;;;;5.67;5.00;;;;;25.69;47.35;100974.78;146616;639;45017;-84
2021/11/03 11:49:34;;;;;;;;;3.33;3.33;;;;;25.74;46.82;100973.00;146616;641;45020;-80
2021/11/03 11:52:24;;;;;;;;;5.33;2.67;;;;;25.63;47.17;100940.31;146613;659;45027;-83
2021/11/03 11:55:38;;;;;;;;;3.33;3.33;;;;;24.82;49.25;100798.38;146609;564;46021;-82
2021/11/03 11:58:25;;;;;;;;;2.67;2.67;;;;;25.79;46.90;100953.47;146614;580;45033;-82
2021/11/03 12:01:39;;;;;;;;;4.33;2.00;;;;;25.72;49.26;100938.47;146618;565;45021;-80
2021/11/03 12:04:40;;;;;;;;;2.33;1.33;;;;;24.92;47.06;100801.84;146620;583;45014;-87
2021/11/03 12:07:28;;;;;;;;;2.67;1.67;;;;;25.93;47.82;100963.13;146616;605;45020;-80
2021/11/03 12:10:30;;;;;;;;;1.33;0.67;;;;;25.04;48.06;100815.03;146614;566;46017;-80
2021/11/03 12:13:26;;;;;;;;;4.00;2.33;;;;;25.85;44.61;100963.19;146619;588;46010;-80
2021/11/03 12:16:23;;;;;;;;;2.67;2.33;;;;;25.81;47.28;100966.75;146614;570;45018;-79
2021/11/03 12:19:03;;;;;;;;;3.33;1.33;;;;;25.81;44.65;100961.44;146617;592;47008;-80
2021/11/03 12:21:59;;;;;;;;;3.00;2.33;;;;;25.82;44.84;100954.34;146617;616;45018;-80
2021/11/03 12:24:38;;;;;;;;;4.00;3.33;;;;;25.81;44.44;100953.47;146612;691;45021;-81
2021/11/03 12:27:38;;;;;;;;;1.33;1.33;;;;;24.15;46.13;100683.88;146614;595;45016;-80